Flight Track Log - Related Links

Times and Time Zones

All times are in EDT time to prevent confusion due to time zone crossing. See the ASQ5240 flight status page for this flight to view local times or setup timezone preferences in your user account.

Time Position Orientation Groundspeed Altitude Reporting Facility
EDT Latitude Longitude Course Direction KTS MPH feet Rate Location/Type
Sun 03:18:45 PM 37.7006 -97.3972 24° Northeast 182 209 3,100  Level Kansas City Center
Sun 03:19:52 PM 37.6814 -97.3078 105° East 257 296 6,300 2,416 Climbing Kansas City Center
Sun 03:21:14 PM 37.6478 -97.2033 112° Southeast 256 295 9,100 2,125 Climbing Kansas City Center
Sun 03:22:16 PM 37.6156 -97.1061 113° Southeast 293 337 11,400 2,032 Climbing Kansas City Center
Sun 03:23:18 PM 37.5803 -97.0003 113° Southeast 322 371 13,300 1,742 Climbing Kansas City Center
Sun 03:24:20 PM 37.5431 -96.8861 112° Southeast 347 399 15,000 2,032 Climbing Kansas City Center
Sun 03:25:22 PM 37.4964 -96.7369 111° Southeast 377 434 17,500 2,000 Climbing Kansas City Center
Sun 03:26:23 PM 37.4533 -96.6108 113° Southeast 388 447 19,100 1,610 Climbing Kansas City Center
Sun 03:27:25 PM 37.4133 -96.4781 111° Southeast 402 463 20,800 1,548 Climbing Kansas City Center
Sun 03:28:27 PM 37.3608 -96.3294 114° Southeast 416 479 22,300 1,161 Climbing Kansas City Center
Sun 03:29:29 PM 37.3136 -96.1839 112° Southeast 439 505 23,200 968 Climbing Kansas City Center
Sun 03:30:31 PM 37.2625 -96.0325 113° Southeast 462 532 24,300 976 Climbing Kansas City Center
Sun 03:31:32 PM 37.2111 -95.8744 112° Southeast 480 552 25,200 927 Climbing Kansas City Center
Sun 03:32:34 PM 37.1558 -95.7161 114° Southeast 489 563 26,200 968 Climbing Kansas City Center
Sun 03:33:36 PM 37.1006 -95.5525 113° Southeast 501 577 27,200 1,403 Climbing Kansas City Center
Sun 03:34:38 PM 37.0447 -95.3883 113° Southeast 507 583 29,100 1,645 Climbing Kansas City Center
Sun 03:35:40 PM 36.9911 -95.2339 113° Southeast 490 564 30,600 1,122 Climbing Kansas City Center
Sun 03:36:41 PM 36.9367 -95.0775 113° Southeast 486 559 31,400 683 Climbing Kansas City Center
Sun 03:37:43 PM 36.8672 -94.8797 114° Southeast 507 583 32,000 532 Climbing Kansas City Center
Sun 03:38:45 PM 36.8064 -94.7117 114° Southeast 523 602 32,500 484 Climbing Kansas City Center
Sun 03:39:47 PM 36.7464 -94.5419 114° Southeast 529 609 33,000 484 Climbing Kansas City Center
Sun 03:40:49 PM 36.6861 -94.3692 113° Southeast 538 619 33,500 484 Climbing Kansas City Center
Sun 03:41:51 PM 36.6247 -94.1981 114° Southeast 539 620 34,000 497 Climbing Kansas City Center
Sun 03:43:38 PM 36.5069 -93.8836 115° Southeast 532 612 34,900 359 Climbing Memphis Center
Sun 03:44:38 PM 36.4469 -93.7133 114° Southeast 532 612 35,000 50 Climbing Memphis Center
Sun 03:45:38 PM 36.3925 -93.5642 114° Southeast 526 605 35,000  Level Memphis Center
Sun 03:46:38 PM 36.3344 -93.3944 113° Southeast 531 611 35,000 200 Level Memphis Center
Sun 03:47:38 PM 36.2717 -93.2272 115° Southeast 526 605 35,400 450 Climbing Memphis Center
Sun 03:48:38 PM 36.2089 -93.0528 114° Southeast 531 611 35,900 300 Climbing Memphis Center
Sun 03:49:38 PM 36.1456 -92.8861 115° Southeast 531 611 36,000 150 Climbing Memphis Center
Sun 03:50:38 PM 36.0861 -92.7225 114° Southeast 526 605 36,200 350 Climbing Memphis Center
Sun 03:51:38 PM 36.0225 -92.5539 115° Southeast 531 611 36,700 400 Climbing Memphis Center
Sun 03:52:38 PM 35.9608 -92.3906 115° Southeast 526 605 37,000 150 Climbing Memphis Center
Sun 03:53:38 PM 35.8986 -92.2278 115° Southeast 526 605 37,000  Level Memphis Center
Sun 03:54:38 PM 35.8364 -92.0650 115° Southeast 526 605 37,000  Level Memphis Center
Sun 03:55:38 PM 35.7758 -91.9050 115° Southeast 521 600 37,000  Level Memphis Center
Sun 03:56:38 PM 35.7172 -91.7481 115° Southeast 514 592 37,000  Level Memphis Center
Sun 03:57:38 PM 35.6542 -91.5911 116° Southeast 509 586 37,000  Level Memphis Center
Sun 03:58:38 PM 35.5953 -91.4344 115° Southeast 509 586 37,000  Level Memphis Center
Sun 03:59:38 PM 35.5275 -91.2703 117° Southeast 509 586 37,000  Level Memphis Center
Sun 04:00:38 PM 35.4703 -91.1142 114° Southeast 501 577 37,000 200 Level Memphis Center
Sun 04:01:38 PM 35.4086 -90.9608 116° Southeast 493 567 37,400 450 Climbing Memphis Center
Sun 04:02:38 PM 35.3467 -90.8050 116° Southeast 493 567 37,900 500 Climbing Memphis Center
Sun 04:03:38 PM 35.2886 -90.6547 115° Southeast 488 562 38,400 500 Climbing Memphis Center
Sun 04:04:38 PM 35.2283 -90.5069 117° Southeast 488 562 38,900 300 Climbing Memphis Center
Sun 04:05:38 PM 35.1681 -90.3569 116° Southeast 483 556 39,000 50 Climbing Memphis Center
Sun 04:06:38 PM 35.1075 -90.2072 116° Southeast 488 562 39,000  Level Memphis Center
Sun 04:07:38 PM 35.0528 -90.0731 116° Southeast 488 562 39,000  Level Memphis Center
Sun 04:08:38 PM 34.9981 -89.9058 112° Southeast 494 568 39,000  Level Memphis Center
Sun 04:09:38 PM 34.9744 -89.7414 100° East 494 568 39,000  Level Memphis Center
Sun 04:10:38 PM 34.9506 -89.5792 100° East 494 568 39,000  Level Memphis Center
Sun 04:11:38 PM 34.9306 -89.3919 97° East 494 568 39,000  Level Memphis Center
Sun 04:12:38 PM 34.9044 -89.2506 103° East 489 563 39,000  Level Memphis Center
Sun 04:13:38 PM 34.8819 -89.0939 100° East 476 548 39,000  Level Memphis Center
Sun 04:14:38 PM 34.8547 -88.9044 100° East 495 570 39,000  Level Memphis Center
Sun 04:15:38 PM 34.8297 -88.7406 100° East 504 580 39,000 -500 Level Memphis Center
Sun 04:17:00 PM 34.7884 -88.5438 100° East  Level FlightAware Approximate
Sun 04:17:38 PM 34.7817 -88.4356 100° East 492 566 37,500  Level Memphis Center
Sun 04:18:38 PM 34.7583 -88.2742 100° East 484 557 36,500 -1,250 Descending Memphis Center
Sun 04:19:38 PM 34.7303 -88.1081 102° East 503 579 35,000 -1,500 Descending Memphis Center
Sun 04:20:38 PM 34.7064 -87.9522 101° East 491 565 33,500 -1,000 Descending Memphis Center
Sun 04:21:38 PM 34.6783 -87.7939 102° East 484 557 33,000 -250 Descending Memphis Center
Sun 04:22:38 PM 34.6539 -87.6306 100° East 490 564 33,000 -500 Level Memphis Center
Sun 04:23:38 PM 34.6164 -87.4525 104° East 490 564 32,000 -1,200 Descending Memphis Center
Sun 04:24:28 PM 34.6014 -87.3419 99° East 487 560 30,800 -1,473 Descending Atlanta Center
Sun 04:25:28 PM 34.5703 -87.1819 103° East 487 560 29,300 -900 Descending Atlanta Center
Sun 04:26:28 PM 34.5408 -87.0194 102° East 487 560 29,000 -200 Descending Atlanta Center
Sun 04:27:28 PM 34.5092 -86.8569 103° East 487 560 28,900 -600 Descending Atlanta Center
Sun 04:28:28 PM 34.4686 -86.7069 108° East 481 554 27,800 -1,050 Descending Atlanta Center
Sun 04:29:28 PM 34.4217 -86.5569 111° Southeast 476 548 26,800 -1,000 Descending Atlanta Center
Sun 04:30:28 PM 34.3747 -86.4019 110° East 482 555 25,800 -1,000 Descending Atlanta Center
Sun 04:31:28 PM 34.3275 -86.2447 110° East 487 560 24,800 -900 Descending Atlanta Center
Sun 04:32:28 PM 34.2781 -86.0900 111° Southeast 487 560 24,000 -400 Descending Atlanta Center
Sun 04:33:28 PM 34.2283 -85.9383 112° Southeast 492 566 24,000 -950 Level Atlanta Center
Sun 04:34:28 PM 34.1825 -85.7892 110° East 492 566 22,100 -1,950 Descending Atlanta Center
Sun 04:35:28 PM 34.1386 -85.6475 110° East 465 535 20,100 -2,150 Descending Atlanta Center
Sun 04:36:28 PM 34.0883 -85.4961 112° Southeast 451 519 17,800 -2,150 Descending Atlanta Center
Sun 04:37:28 PM 34.0481 -85.3650 110° East 429 494 15,800 -2,000 Descending Atlanta Center
Sun 04:38:28 PM 34.0033 -85.2342 112° Southeast 418 481 13,800 -1,450 Descending Atlanta Center
Sun 04:39:28 PM 33.9628 -85.1108 112° Southeast 413 475 12,900 -400 Descending Atlanta Center
Sun 04:40:28 PM 33.9156 -85.0125 120° Southeast 363 418 13,000  Climbing Atlanta Center
Sun 04:41:28 PM 33.8642 -84.9119 122° Southeast 343 395 12,900 50 Descending Atlanta Center
Sun 04:42:29 PM 33.8333 -84.8167 111° Southeast 312 359 13,100  Climbing Atlanta TRACON
Sun 04:43:29 PM 33.8000 -84.7333 116° Southeast 267 307 12,900 -500 Descending Atlanta TRACON
Sun 04:44:29 PM 33.7667 -84.6500 116° Southeast 262 302 12,100 -450 Descending Atlanta TRACON
Sun 04:45:29 PM 33.7333 -84.5667 116° Southeast 262 302 12,000 -800 Descending Atlanta TRACON
Sun 04:46:29 PM 33.7333 -84.4833 90° East 280 322 10,500 -1,400 Descending Atlanta TRACON
Sun 04:47:29 PM 33.7333 -84.3833 90° East 276 318 9,200 -1,474 Descending Atlanta TRACON
Sun 04:48:23 PM 33.7333 -84.3000 90° East 260 299 7,700 -1,368 Descending Atlanta TRACON
Sun 04:49:23 PM 33.7333 -84.2333 90° East 217 250 6,600 -1,286 Descending Atlanta TRACON
Sun 04:50:29 PM 33.7333 -84.1500 90° East 206 237 5,000 -900 Descending Atlanta TRACON
Sun 04:51:23 PM 33.6833 -84.1333 164° South 210 242 4,800 -450 Descending Atlanta TRACON
Sun 04:52:29 PM 33.6500 -84.1833 231° Southwest 191 220 4,100 -524 Descending Atlanta TRACON
Sun 04:53:29 PM 33.6500 -84.2500 270° West 189 217 3,700 -750 Descending Atlanta TRACON
Sun 04:54:29 PM 33.6500 -84.3167 270° West 190 219 2,600 -1,000 Descending Atlanta TRACON
Sun 04:55:29 PM 33.6500 -84.3667 270° West 160 184 1,700 -900 Descending Atlanta TRACON
Sun 04:57:00 PM 33.6333 -84.4167 North  Level FlightAware Approximate
Sun 05:04:00 PM 33.6367 -84.4279 North  Level Estimated
Sun 05:05:00 PM 33.6367 -84.4279 North  Level Estimated

Login

Don't have an account? Register now (free) for customized features, flight alerts, and more!